createdAt,value
2024-04-30T00:00:07.362Z,16.10
2024-04-30T00:02:37.004Z,16.09
2024-04-30T00:05:04.652Z,16.06
2024-04-30T00:07:35.471Z,16.04
2024-04-30T00:10:02.579Z,16.02
2024-04-30T00:12:34.781Z,15.99
2024-04-30T00:15:03.222Z,15.97
2024-04-30T00:17:32.983Z,15.96
2024-04-30T00:20:00.266Z,15.94
2024-04-30T00:22:30.338Z,15.94
2024-04-30T00:24:57.586Z,15.93
2024-04-30T00:27:26.985Z,15.93
2024-04-30T00:29:56.557Z,15.91
2024-04-30T00:32:26.318Z,15.87
2024-04-30T00:34:56.384Z,15.86
2024-04-30T00:37:26.145Z,15.85
2024-04-30T00:39:53.272Z,15.82
2024-04-30T00:42:22.958Z,15.80
2024-04-30T00:44:51.433Z,15.76
2024-04-30T00:47:23.808Z,15.71
2024-04-30T00:49:50.969Z,15.67
2024-04-30T00:52:20.904Z,15.65
2024-04-30T00:54:48.177Z,15.62
2024-04-30T00:57:18.372Z,15.58
2024-04-30T00:59:47.052Z,15.52
2024-04-30T01:02:17.080Z,15.52
2024-04-30T01:04:57.261Z,15.49
2024-04-30T01:07:26.908Z,15.47
2024-04-30T01:09:53.974Z,15.47
2024-04-30T01:12:25.396Z,15.45
2024-04-30T01:14:52.714Z,15.44
2024-04-30T01:17:22.467Z,15.43
2024-04-30T01:19:52.177Z,15.42
2024-04-30T01:22:22.552Z,15.39
2024-04-30T01:24:52.234Z,15.37
2024-04-30T01:27:22.201Z,15.34
2024-04-30T01:29:49.168Z,15.33
2024-04-30T01:32:19.008Z,15.32
2024-04-30T01:34:46.203Z,15.29
2024-04-30T01:37:15.621Z,15.23
2024-04-30T01:39:42.685Z,15.14
2024-04-30T01:42:14.996Z,15.17
2024-04-30T01:44:42.689Z,15.15
2024-04-30T01:47:12.289Z,15.10
2024-04-30T01:49:39.416Z,15.08
2024-04-30T01:52:10.045Z,15.06
2024-04-30T01:54:37.046Z,15.04
2024-04-30T01:57:07.178Z,15.00
2024-04-30T01:59:44.326Z,14.95
2024-04-30T02:02:11.596Z,14.92
2024-04-30T02:04:46.266Z,14.88
2024-04-30T02:07:17.095Z,14.85
2024-04-30T02:09:46.727Z,14.80
2024-04-30T02:12:13.687Z,14.77
2024-04-30T02:14:46.056Z,14.75
2024-04-30T02:17:13.080Z,14.70
2024-04-30T02:19:42.912Z,14.63
2024-04-30T02:22:09.931Z,14.55
2024-04-30T02:24:39.598Z,14.50
2024-04-30T02:27:06.570Z,14.46
2024-04-30T02:29:36.168Z,14.42
2024-04-30T02:32:25.901Z,14.38
2024-04-30T02:34:55.625Z,14.35
2024-04-30T02:37:25.212Z,14.32
2024-04-30T02:39:55.014Z,14.28
2024-04-30T02:42:21.949Z,14.26
2024-04-30T02:44:51.616Z,14.27
2024-04-30T02:47:21.441Z,14.27
2024-04-30T02:49:51.225Z,14.23
2024-04-30T02:52:18.206Z,14.22
2024-04-30T02:54:47.940Z,14.18
2024-04-30T02:57:15.021Z,14.17
2024-04-30T02:59:44.710Z,14.15
2024-04-30T03:02:11.692Z,14.14
2024-04-30T03:04:46.839Z,14.12
2024-04-30T03:07:13.900Z,14.10
2024-04-30T03:09:43.550Z,14.08
2024-04-30T03:12:10.971Z,14.07
2024-04-30T03:14:40.698Z,14.05
2024-04-30T03:17:07.715Z,14.05
2024-04-30T03:19:37.516Z,14.03
2024-04-30T03:22:07.425Z,14.02
2024-04-30T03:24:37.032Z,14.04
2024-04-30T03:27:04.764Z,14.06
2024-04-30T03:29:34.342Z,14.05
2024-04-30T03:32:01.543Z,14.05
2024-04-30T03:34:31.294Z,14.04
2024-04-30T03:37:01.088Z,14.04
2024-04-30T03:39:33.608Z,14.03
2024-04-30T03:42:03.249Z,14.04
2024-04-30T03:44:32.895Z,14.05
2024-04-30T03:47:02.678Z,14.06
2024-04-30T03:49:32.584Z,14.03
2024-04-30T03:51:59.758Z,14.03
2024-04-30T03:54:29.799Z,14.03
2024-04-30T03:56:59.428Z,14.05
2024-04-30T03:59:29.239Z,14.05
2024-04-30T04:01:56.207Z,14.04
2024-04-30T04:04:25.952Z,14.01
2024-04-30T04:06:53.195Z,14.04
2024-04-30T04:09:23.255Z,14.01
2024-04-30T04:12:08.798Z,13.99
2024-04-30T04:14:51.601Z,13.98
2024-04-30T04:17:22.995Z,13.93
2024-04-30T04:19:52.889Z,13.92
2024-04-30T04:22:22.578Z,13.91
2024-04-30T04:24:49.914Z,13.91
2024-04-30T04:27:19.352Z,13.94
2024-04-30T04:29:49.347Z,13.93
2024-04-30T04:32:19.128Z,13.94
2024-04-30T04:34:46.164Z,13.98
2024-04-30T04:37:15.963Z,13.98
2024-04-30T04:39:43.131Z,13.98
2024-04-30T04:42:12.746Z,14.01
2024-04-30T04:44:42.442Z,14.03
2024-04-30T04:47:13.267Z,14.05
2024-04-30T04:49:42.938Z,14.08
2024-04-30T04:52:10.076Z,14.11
2024-04-30T04:54:39.731Z,14.15
2024-04-30T04:57:06.676Z,14.17
2024-04-30T04:59:36.723Z,14.20
2024-04-30T05:02:04.786Z,14.24
2024-04-30T05:04:37.143Z,14.26
2024-04-30T05:07:04.635Z,14.27
2024-04-30T05:09:34.304Z,14.33
2024-04-30T05:12:01.470Z,14.36
2024-04-30T05:14:31.192Z,14.38
2024-04-30T05:16:58.264Z,14.40
2024-04-30T05:19:27.975Z,14.44
2024-04-30T05:21:57.975Z,14.48
2024-04-30T05:24:27.865Z,14.51
2024-04-30T05:26:55.110Z,14.55
2024-04-30T05:29:24.508Z,14.60
2024-04-30T05:31:51.698Z,14.66
2024-04-30T05:34:21.410Z,14.71
2024-04-30T05:36:48.651Z,14.76
2024-04-30T05:39:20.888Z,14.83
2024-04-30T05:41:48.071Z,14.89
2024-04-30T05:44:18.565Z,14.95
2024-04-30T05:46:45.636Z,15.00
2024-04-30T05:49:15.952Z,15.07
2024-04-30T05:51:43.511Z,15.11
2024-04-30T05:54:13.518Z,15.12
2024-04-30T05:56:43.111Z,15.14
2024-04-30T05:59:14.170Z,15.20
2024-04-30T06:01:41.190Z,15.21
2024-04-30T06:04:11.611Z,15.27
2024-04-30T06:06:38.805Z,15.37
2024-04-30T06:09:08.847Z,15.50
2024-04-30T06:11:38.501Z,15.64
2024-04-30T06:14:08.416Z,15.79
2024-04-30T06:16:38.197Z,15.90
2024-04-30T06:19:05.835Z,16.00
2024-04-30T06:21:37.928Z,16.05
2024-04-30T06:24:07.110Z,16.09
2024-04-30T06:26:36.810Z,16.08
2024-04-30T06:29:03.947Z,16.07
2024-04-30T06:31:36.206Z,16.04
2024-04-30T06:34:03.567Z,16.03
2024-04-30T06:36:33.807Z,16.02
2024-04-30T06:39:00.811Z,16.01
2024-04-30T06:41:30.505Z,16.03
2024-04-30T06:43:57.621Z,16.05
2024-04-30T06:46:27.311Z,16.05
2024-04-30T06:48:57.107Z,16.03
2024-04-30T06:51:29.673Z,15.98
2024-04-30T06:53:56.665Z,15.91
2024-04-30T06:56:26.498Z,15.85
2024-04-30T06:58:54.981Z,15.75
2024-04-30T07:01:24.654Z,15.75
2024-04-30T07:03:51.624Z,15.78
2024-04-30T07:06:23.995Z,15.82
2024-04-30T07:08:51.077Z,15.84
2024-04-30T07:11:21.005Z,15.87
2024-04-30T07:13:48.225Z,15.95
2024-04-30T07:16:17.863Z,16.08
2024-04-30T07:18:47.020Z,16.21
2024-04-30T07:21:16.653Z,16.35
2024-04-30T07:23:46.360Z,16.49
2024-04-30T07:26:18.833Z,16.61
2024-04-30T07:28:46.626Z,16.74
2024-04-30T07:31:16.507Z,16.89
2024-04-30T07:33:43.760Z,17.06
2024-04-30T07:36:13.542Z,17.24
2024-04-30T07:38:40.825Z,17.37
2024-04-30T07:41:13.083Z,17.53
2024-04-30T07:43:40.040Z,17.65
2024-04-30T07:46:09.801Z,17.79
2024-04-30T07:48:36.841Z,17.93
2024-04-30T07:51:06.918Z,18.03
2024-04-30T07:53:33.920Z,18.10
2024-04-30T07:56:03.619Z,18.16
2024-04-30T07:58:33.403Z,18.18
2024-04-30T08:01:04.090Z,18.21
2024-04-30T08:03:31.450Z,18.19
2024-04-30T08:06:10.344Z,18.20
2024-04-30T08:08:41.933Z,18.10
2024-04-30T08:11:11.592Z,18.00
2024-04-30T08:13:43.028Z,17.93
2024-04-30T08:16:14.671Z,17.91
2024-04-30T08:18:41.832Z,17.90
2024-04-30T08:21:11.616Z,17.95
2024-04-30T08:23:38.707Z,18.01
2024-04-30T08:26:09.538Z,18.13
2024-04-30T08:28:36.781Z,18.28
2024-04-30T08:31:09.591Z,18.43
2024-04-30T08:33:36.670Z,18.55
2024-04-30T08:36:06.122Z,18.63
2024-04-30T08:38:33.252Z,18.68
2024-04-30T08:41:02.881Z,18.71
2024-04-30T08:43:31.169Z,18.79
2024-04-30T08:46:03.097Z,18.92
2024-04-30T08:48:34.316Z,19.07
2024-04-30T08:51:04.930Z,19.16
2024-04-30T08:53:37.318Z,19.27
2024-04-30T08:56:12.628Z,19.40
2024-04-30T08:58:40.122Z,19.52
2024-04-30T09:01:10.547Z,19.58
2024-04-30T09:03:43.416Z,19.60
2024-04-30T09:06:13.335Z,19.57
2024-04-30T09:08:40.391Z,19.55
2024-04-30T09:11:11.331Z,19.58
2024-04-30T09:13:41.505Z,19.65
2024-04-30T09:16:12.326Z,19.73
2024-04-30T09:18:52.308Z,19.81
2024-04-30T09:21:30.652Z,19.86
2024-04-30T09:24:06.731Z,19.88
2024-04-30T09:26:37.078Z,19.95
2024-04-30T09:29:04.092Z,20.02
2024-04-30T09:31:41.389Z,20.12
2024-04-30T09:34:11.233Z,20.23
2024-04-30T09:36:41.609Z,20.33
2024-04-30T09:39:09.823Z,20.43
2024-04-30T09:41:41.365Z,20.51
2024-04-30T09:44:08.405Z,20.56
2024-04-30T09:46:38.788Z,20.60
2024-04-30T09:49:08.981Z,20.76
2024-04-30T09:51:45.583Z,20.80
2024-04-30T09:54:18.617Z,20.82
2024-04-30T09:56:48.849Z,20.95
2024-04-30T09:59:18.639Z,21.20
2024-04-30T10:01:47.116Z,21.46
2024-04-30T10:04:17.228Z,21.80
2024-04-30T10:06:51.660Z,22.18
2024-04-30T10:09:22.651Z,22.44
2024-04-30T10:11:50.166Z,22.63
2024-04-30T10:14:20.032Z,22.84
2024-04-30T10:16:58.836Z,22.96
2024-04-30T10:19:28.933Z,23.19
2024-04-30T10:21:58.632Z,23.46
2024-04-30T10:24:28.411Z,23.60
2024-04-30T10:26:55.398Z,23.74
2024-04-30T10:29:25.039Z,23.90
2024-04-30T10:31:53.164Z,23.95
2024-04-30T10:34:24.333Z,23.93
2024-04-30T10:36:52.579Z,23.78
2024-04-30T10:39:31.195Z,23.61
2024-04-30T10:41:58.222Z,23.54
2024-04-30T10:44:28.115Z,23.49
2024-04-30T10:46:57.764Z,23.45
2024-04-30T10:49:27.539Z,23.35
2024-04-30T10:51:54.670Z,23.28
2024-04-30T10:54:24.521Z,23.32
2024-04-30T10:56:54.310Z,23.36
2024-04-30T10:59:29.280Z,23.43
2024-04-30T11:01:59.143Z,23.54
2024-04-30T11:04:32.523Z,23.65
2024-04-30T11:07:00.129Z,23.76
2024-04-30T11:09:29.998Z,23.85
2024-04-30T11:12:02.486Z,23.97
2024-04-30T11:14:32.566Z,24.10
2024-04-30T11:16:59.722Z,24.24
2024-04-30T11:19:29.333Z,24.46
2024-04-30T11:21:56.495Z,24.63
2024-04-30T11:24:26.168Z,24.75
2024-04-30T11:26:53.444Z,24.97
2024-04-30T11:29:34.988Z,25.18
2024-04-30T11:32:06.359Z,25.38
2024-04-30T11:34:36.376Z,25.58
2024-04-30T11:37:04.433Z,25.80
2024-04-30T11:39:34.053Z,26.02
2024-04-30T11:42:12.587Z,26.08
2024-04-30T11:44:50.595Z,26.21
2024-04-30T11:47:17.608Z,26.52
2024-04-30T11:49:47.358Z,26.83
2024-04-30T11:52:14.530Z,27.13
2024-04-30T11:54:44.375Z,27.39
2024-04-30T11:57:11.501Z,27.54
2024-04-30T11:59:41.804Z,27.51
2024-04-30T12:02:11.780Z,27.63
2024-04-30T12:04:41.537Z,27.89
2024-04-30T12:07:08.770Z,28.24
2024-04-30T12:09:38.550Z,28.62
2024-04-30T12:12:06.404Z,28.83
2024-04-30T12:14:36.322Z,28.96
2024-04-30T12:17:03.491Z,29.01
2024-04-30T12:19:36.152Z,29.18
2024-04-30T12:22:03.399Z,29.41
2024-04-30T12:24:33.057Z,29.68
2024-04-30T12:27:00.045Z,30.19
2024-04-30T12:29:29.808Z,30.62
2024-04-30T12:31:56.751Z,31.08
2024-04-30T12:34:26.346Z,31.56
2024-04-30T12:36:57.081Z,31.75
2024-04-30T12:39:28.202Z,32.16
2024-04-30T12:41:55.259Z,32.61
2024-04-30T12:44:25.011Z,32.98
2024-04-30T12:46:52.013Z,33.27
2024-04-30T12:49:22.923Z,33.53
2024-04-30T12:51:49.947Z,33.86
2024-04-30T12:54:22.325Z,34.28
2024-04-30T12:56:49.097Z,34.74
2024-04-30T12:59:19.346Z,35.06
2024-04-30T13:01:46.323Z,35.22
2024-04-30T13:04:16.261Z,35.39
2024-04-30T13:06:43.397Z,35.63
2024-04-30T13:09:13.063Z,35.98
2024-04-30T13:11:43.360Z,36.25
2024-04-30T13:14:15.042Z,36.65
2024-04-30T13:16:42.482Z,36.78
2024-04-30T13:19:12.425Z,36.93
2024-04-30T13:21:40.874Z,37.34
2024-04-30T13:24:14.403Z,37.61
2024-04-30T13:26:44.112Z,37.94
2024-04-30T13:29:13.819Z,38.32
2024-04-30T13:31:46.827Z,38.36
2024-04-30T13:34:16.877Z,38.50
2024-04-30T13:36:44.199Z,38.65
2024-04-30T13:39:15.565Z,38.78
2024-04-30T13:41:45.508Z,39.09
2024-04-30T13:44:15.101Z,39.40
2024-04-30T13:46:42.758Z,39.49
2024-04-30T13:49:12.431Z,39.70
2024-04-30T13:51:39.403Z,39.81
2024-04-30T13:54:09.531Z,39.92
2024-04-30T13:56:36.540Z,40.03
2024-04-30T13:59:09.497Z,40.23
2024-04-30T14:01:36.644Z,40.55
2024-04-30T14:04:06.345Z,40.99
2024-04-30T14:06:33.563Z,41.16
2024-04-30T14:09:03.174Z,41.19
2024-04-30T14:11:30.317Z,41.16
2024-04-30T14:14:05.653Z,40.93
2024-04-30T14:16:36.278Z,40.98
2024-04-30T14:19:06.211Z,40.84
2024-04-30T14:21:33.197Z,40.93
2024-04-30T14:24:03.097Z,41.03
2024-04-30T14:26:30.204Z,40.87
2024-04-30T14:28:59.797Z,40.47
2024-04-30T14:31:26.890Z,40.33
2024-04-30T14:33:59.188Z,40.38
2024-04-30T14:36:34.877Z,40.68
2024-04-30T14:39:10.249Z,40.75
2024-04-30T14:41:38.306Z,40.76
2024-04-30T14:44:08.187Z,40.70
2024-04-30T14:46:35.284Z,40.64
2024-04-30T14:49:08.194Z,40.76
2024-04-30T14:51:35.555Z,40.88
2024-04-30T14:54:05.577Z,40.67
2024-04-30T14:56:33.941Z,40.30
2024-04-30T14:59:04.620Z,40.07
2024-04-30T15:01:31.649Z,39.94
2024-04-30T15:04:02.003Z,39.84
2024-04-30T15:06:31.750Z,40.03
2024-04-30T15:09:01.360Z,40.36
2024-04-30T15:11:28.654Z,40.68
2024-04-30T15:13:58.583Z,40.77
2024-04-30T15:16:25.632Z,40.83
2024-04-30T15:18:55.443Z,40.88
2024-04-30T15:21:22.599Z,40.97
2024-04-30T15:23:55.005Z,40.82
2024-04-30T15:26:24.723Z,40.63
2024-04-30T15:28:51.826Z,40.22
2024-04-30T15:31:24.147Z,39.75
2024-04-30T15:33:51.402Z,39.15
2024-04-30T15:36:22.195Z,38.42
2024-04-30T15:38:51.944Z,37.64
2024-04-30T15:41:24.989Z,37.13
2024-04-30T15:43:52.367Z,36.68
2024-04-30T15:46:22.148Z,36.09
2024-04-30T15:48:51.232Z,35.52
2024-04-30T15:51:21.026Z,34.97
2024-04-30T15:53:47.982Z,34.65
2024-04-30T15:56:20.689Z,34.58
2024-04-30T15:58:49.127Z,34.41
2024-04-30T16:01:19.029Z,34.18
2024-04-30T16:03:46.232Z,33.96
2024-04-30T16:06:17.199Z,33.76
2024-04-30T16:08:44.176Z,33.48
2024-04-30T16:11:14.177Z,33.19
2024-04-30T16:13:44.160Z,32.74
2024-04-30T16:16:18.408Z,32.26
2024-04-30T16:18:47.589Z,31.70
2024-04-30T16:21:18.223Z,31.26
2024-04-30T16:23:45.209Z,30.77
2024-04-30T16:26:15.014Z,30.50
2024-04-30T16:28:45.207Z,30.22
2024-04-30T16:31:16.507Z,29.88
2024-04-30T16:33:43.806Z,29.58
2024-04-30T16:36:22.904Z,29.40
2024-04-30T16:38:51.359Z,29.11
2024-04-30T16:41:20.957Z,28.86
2024-04-30T16:43:51.891Z,28.67
2024-04-30T16:46:21.672Z,28.52
2024-04-30T16:48:48.725Z,28.37
2024-04-30T16:51:18.448Z,28.19
2024-04-30T16:53:45.627Z,28.09
2024-04-30T16:56:15.564Z,27.99
2024-04-30T16:58:42.853Z,27.91
2024-04-30T17:01:15.440Z,27.76
2024-04-30T17:03:42.628Z,27.61
2024-04-30T17:06:12.862Z,27.47
2024-04-30T17:08:40.050Z,27.33
2024-04-30T17:11:10.752Z,27.24
2024-04-30T17:13:41.716Z,27.14
2024-04-30T17:16:21.908Z,27.02
2024-04-30T17:18:50.367Z,26.92
2024-04-30T17:21:20.680Z,26.79
2024-04-30T17:23:48.580Z,26.68
2024-04-30T17:26:23.987Z,26.56
2024-04-30T17:28:55.944Z,26.47
2024-04-30T17:31:25.617Z,26.36
2024-04-30T17:33:57.088Z,26.20
2024-04-30T17:36:24.546Z,26.09
2024-04-30T17:38:54.396Z,25.94
2024-04-30T17:41:25.584Z,25.75
2024-04-30T17:43:55.584Z,25.57
2024-04-30T17:46:27.335Z,25.44
2024-04-30T17:48:57.854Z,25.28
2024-04-30T17:51:28.347Z,25.16
2024-04-30T17:53:55.598Z,25.02
2024-04-30T17:56:25.337Z,24.89
2024-04-30T17:58:52.329Z,24.75
2024-04-30T18:01:22.502Z,24.61
2024-04-30T18:03:51.087Z,24.45
2024-04-30T18:06:23.580Z,24.32
2024-04-30T18:08:57.571Z,24.19
2024-04-30T18:11:28.692Z,24.08
2024-04-30T18:13:59.361Z,23.95
2024-04-30T18:16:27.400Z,23.87
2024-04-30T18:18:57.433Z,23.75
2024-04-30T18:21:35.268Z,23.64
2024-04-30T18:24:07.352Z,23.49
2024-04-30T18:26:39.176Z,23.36
2024-04-30T18:29:08.844Z,23.25
2024-04-30T18:31:36.132Z,23.11
2024-04-30T18:34:06.277Z,22.98
2024-04-30T18:36:39.356Z,22.87
2024-04-30T18:39:13.780Z,22.78
2024-04-30T18:41:41.460Z,22.71
2024-04-30T18:44:11.451Z,22.60
2024-04-30T18:46:38.447Z,22.47
2024-04-30T18:49:08.406Z,22.34
2024-04-30T18:51:43.838Z,22.22
2024-04-30T18:54:10.926Z,22.10
2024-04-30T18:56:42.510Z,21.99
2024-04-30T18:59:09.812Z,21.85
2024-04-30T19:01:40.250Z,21.72
2024-04-30T19:04:07.366Z,21.62
2024-04-30T19:06:37.308Z,21.50
2024-04-30T19:09:07.020Z,21.42
2024-04-30T19:11:36.885Z,21.36
2024-04-30T19:14:04.000Z,21.30
2024-04-30T19:16:33.662Z,21.21
2024-04-30T19:19:00.755Z,21.15
2024-04-30T19:21:30.442Z,21.08
2024-04-30T19:23:57.813Z,21.10
2024-04-30T19:26:30.162Z,21.04
2024-04-30T19:28:57.260Z,20.99
2024-04-30T19:31:26.862Z,20.91
2024-04-30T19:33:54.269Z,20.87
2024-04-30T19:36:26.607Z,20.79
2024-04-30T19:38:53.673Z,20.69
2024-04-30T19:41:23.922Z,20.62
2024-04-30T19:43:54.115Z,20.56
2024-04-30T19:46:23.910Z,20.48
2024-04-30T19:48:52.664Z,20.42
2024-04-30T19:51:23.310Z,20.36
2024-04-30T19:53:51.213Z,20.28
2024-04-30T19:56:22.053Z,20.27
2024-04-30T19:58:55.614Z,20.22
2024-04-30T20:01:30.038Z,20.15
2024-04-30T20:04:02.597Z,20.08
2024-04-30T20:06:29.717Z,20.00
2024-04-30T20:09:02.878Z,19.94
2024-04-30T20:11:32.783Z,19.87
2024-04-30T20:14:02.550Z,19.80
2024-04-30T20:16:34.931Z,19.74
2024-04-30T20:19:01.953Z,19.67
2024-04-30T20:21:31.810Z,19.61
2024-04-30T20:23:58.815Z,19.53
2024-04-30T20:26:28.462Z,19.44
2024-04-30T20:28:55.672Z,19.38
2024-04-30T20:31:26.488Z,19.32
2024-04-30T20:33:57.090Z,19.30
2024-04-30T20:36:26.818Z,19.22
2024-04-30T20:38:54.033Z,19.14
2024-04-30T20:41:23.719Z,19.10
2024-04-30T20:43:50.839Z,19.07
2024-04-30T20:46:21.699Z,19.04
2024-04-30T20:51:21.205Z,18.91
2024-04-30T20:53:48.334Z,18.87
2024-04-30T20:56:17.934Z,18.86
2024-04-30T20:58:44.890Z,18.81
2024-04-30T21:01:16.516Z,18.76
2024-04-30T21:03:44.052Z,18.69
2024-04-30T21:06:13.763Z,18.65
2024-04-30T21:08:43.799Z,18.61
2024-04-30T21:11:17.063Z,18.63
2024-04-30T21:13:43.930Z,18.59
2024-04-30T21:16:13.566Z,18.52
2024-04-30T21:18:40.825Z,18.46
2024-04-30T21:21:10.636Z,18.41
2024-04-30T21:23:39.742Z,18.37
2024-04-30T21:26:13.723Z,18.32
2024-04-30T21:28:41.316Z,18.26
2024-04-30T21:31:10.962Z,18.21
2024-04-30T21:33:41.162Z,18.13
2024-04-30T21:36:11.843Z,18.09
2024-04-30T21:38:41.665Z,18.03
2024-04-30T21:41:11.557Z,18.00
2024-04-30T21:43:41.225Z,17.96
2024-04-30T21:46:08.705Z,17.92
2024-04-30T21:48:41.525Z,17.90
2024-04-30T21:51:08.915Z,17.89
2024-04-30T21:53:40.487Z,17.87
2024-04-30T21:56:10.642Z,17.83
2024-04-30T21:58:40.358Z,17.77
2024-04-30T22:01:10.664Z,17.74
2024-04-30T22:03:42.700Z,17.71
2024-04-30T22:06:09.770Z,17.66
2024-04-30T22:08:41.904Z,17.60
2024-04-30T22:11:11.758Z,17.59
2024-04-30T22:13:41.505Z,17.53
2024-04-30T22:16:08.869Z,17.51
2024-04-30T22:18:39.368Z,17.47
2024-04-30T22:21:10.738Z,17.44
2024-04-30T22:23:40.494Z,17.42
2024-04-30T22:26:07.795Z,17.35
2024-04-30T22:28:40.274Z,17.31
2024-04-30T22:31:07.555Z,17.26
2024-04-30T22:33:37.546Z,17.24
2024-04-30T22:36:05.607Z,17.19
2024-04-30T22:38:35.339Z,17.13
2024-04-30T22:41:02.406Z,17.11
2024-04-30T22:43:31.826Z,17.10
2024-04-30T22:46:01.628Z,17.04
2024-04-30T22:48:31.434Z,17.00
2024-04-30T22:50:58.794Z,16.94
2024-04-30T22:53:30.596Z,16.88
2024-04-30T22:55:59.774Z,16.82
2024-04-30T22:58:29.652Z,16.79
2024-04-30T23:00:56.821Z,16.77
2024-04-30T23:03:29.205Z,16.74
2024-04-30T23:05:56.390Z,16.70
2024-04-30T23:08:26.087Z,16.68
2024-04-30T23:10:53.166Z,16.66
2024-04-30T23:13:22.579Z,16.65
2024-04-30T23:15:49.827Z,16.62
2024-04-30T23:18:19.734Z,16.62
2024-04-30T23:20:49.440Z,16.61
2024-04-30T23:23:19.092Z,16.59
2024-04-30T23:25:46.325Z,16.56
2024-04-30T23:28:16.167Z,16.52
2024-04-30T23:30:43.147Z,16.50
2024-04-30T23:33:13.231Z,16.48
2024-04-30T23:35:40.377Z,16.46
2024-04-30T23:38:12.432Z,16.45
2024-04-30T23:40:39.372Z,16.40
2024-04-30T23:43:09.146Z,16.39
2024-04-30T23:45:36.200Z,16.34
2024-04-30T23:48:05.898Z,16.30
2024-04-30T23:50:32.879Z,16.28
2024-04-30T23:53:02.536Z,16.26
2024-04-30T23:55:32.104Z,16.27
2024-04-30T23:58:01.711Z,16.30
